createdAt,value
2017-09-28T00:00:03.746Z,1009.4
2017-09-28T00:01:05.139Z,1009.4
2017-09-28T00:02:06.527Z,1009.4
2017-09-28T00:03:07.917Z,1009.4
2017-09-28T00:04:09.314Z,1009.4
2017-09-28T00:05:10.703Z,1009.4
2017-09-28T00:06:12.108Z,1009.4
2017-09-28T00:07:13.498Z,1009.4
2017-09-28T00:08:14.893Z,1009.5
2017-09-28T00:09:16.282Z,1009.4
2017-09-28T00:10:17.675Z,1009.5
2017-09-28T00:11:19.071Z,1009.5
2017-09-28T00:12:20.459Z,1009.4
2017-09-28T00:13:21.850Z,1009.4
2017-09-28T00:14:23.235Z,1009.4
2017-09-28T00:15:24.629Z,1009.4
2017-09-28T00:16:26.023Z,1009.5
2017-09-28T00:17:27.416Z,1009.4
2017-09-28T00:18:28.805Z,1009.4
2017-09-28T00:19:30.194Z,1009.4
2017-09-28T00:20:31.584Z,1009.4
2017-09-28T00:21:32.972Z,1009.4
2017-09-28T00:22:34.366Z,1009.4
2017-09-28T00:23:35.757Z,1009.5
2017-09-28T00:24:37.150Z,1009.4
2017-09-28T00:25:38.545Z,1009.5
2017-09-28T00:26:39.930Z,1009.4
2017-09-28T00:27:41.320Z,1009.5
2017-09-28T00:28:42.709Z,1009.5
2017-09-28T00:29:44.100Z,1009.5
2017-09-28T00:30:45.492Z,1009.5
2017-09-28T00:31:46.883Z,1009.5
2017-09-28T00:32:48.272Z,1009.4
2017-09-28T00:33:49.662Z,1009.4
2017-09-28T00:34:51.051Z,1009.4
2017-09-28T00:35:52.438Z,1009.4
2017-09-28T00:36:53.830Z,1009.4
2017-09-28T00:37:55.221Z,1009.5
2017-09-28T00:38:56.615Z,1009.4
2017-09-28T00:39:58.003Z,1009.4
2017-09-28T00:40:59.391Z,1009.5
2017-09-28T00:42:00.781Z,1009.4
2017-09-28T00:43:02.173Z,1009.4
2017-09-28T00:44:03.562Z,1009.4
2017-09-28T00:45:04.954Z,1009.4
2017-09-28T00:46:06.347Z,1009.4
2017-09-28T00:47:07.736Z,1009.4
2017-09-28T00:48:09.127Z,1009.3
2017-09-28T00:49:10.514Z,1009.3
2017-09-28T00:50:11.903Z,1009.3
2017-09-28T00:51:13.297Z,1009.3
2017-09-28T00:52:14.683Z,1009.3
2017-09-28T00:53:16.077Z,1009.2
2017-09-28T00:54:17.513Z,1009.3
2017-09-28T00:55:18.862Z,1009.3
2017-09-28T00:56:20.253Z,1009.2
2017-09-28T00:57:21.645Z,1009.2
2017-09-28T00:58:23.035Z,1009.2
2017-09-28T00:59:24.426Z,1009.2
2017-09-28T01:00:25.816Z,1009.2
2017-09-28T01:01:27.209Z,1009.2
2017-09-28T01:02:28.597Z,1009.2
2017-09-28T01:03:29.988Z,1009.2
2017-09-28T01:04:31.375Z,1009.1
2017-09-28T01:05:32.764Z,1009.2
2017-09-28T01:06:34.153Z,1009.2
2017-09-28T01:07:35.556Z,1009.2
2017-09-28T01:08:36.952Z,1009.2
2017-09-28T01:09:38.344Z,1009.2
2017-09-28T01:10:39.731Z,1009.2
2017-09-28T01:11:41.123Z,1009.2
2017-09-28T01:12:42.510Z,1009.2
2017-09-28T01:13:43.900Z,1009.2
2017-09-28T01:14:45.292Z,1009.2
2017-09-28T01:15:46.683Z,1009.2
2017-09-28T01:16:48.072Z,1009.2
2017-09-28T01:17:49.460Z,1009.1
2017-09-28T01:18:50.851Z,1009.1
2017-09-28T01:19:52.241Z,1009.1
2017-09-28T01:20:53.631Z,1009.1
2017-09-28T01:21:55.024Z,1009.2
2017-09-28T01:22:56.416Z,1009.1
2017-09-28T01:23:57.804Z,1009.1
2017-09-28T01:24:59.192Z,1009.1
2017-09-28T01:26:00.581Z,1009.1
2017-09-28T01:27:01.976Z,1009.1
2017-09-28T01:28:03.367Z,1009.1
2017-09-28T01:29:04.761Z,1009.1
2017-09-28T01:30:06.168Z,1009.0
2017-09-28T01:31:07.557Z,1009.1
2017-09-28T01:32:08.945Z,1009.1
2017-09-28T01:33:10.333Z,1009.0
2017-09-28T01:34:11.723Z,1009.0
2017-09-28T01:35:13.116Z,1009.0
2017-09-28T01:36:14.508Z,1009.0
2017-09-28T01:37:15.901Z,1009.0
2017-09-28T01:38:17.294Z,1009.0
2017-09-28T01:39:18.681Z,1009.0
2017-09-28T01:40:20.069Z,1009.0
2017-09-28T01:41:21.458Z,1009.0
2017-09-28T01:42:22.847Z,1009.0
2017-09-28T01:43:24.251Z,1009.0
2017-09-28T01:44:25.644Z,1008.9
2017-09-28T01:45:27.034Z,1008.9
2017-09-28T01:46:28.424Z,1008.9
2017-09-28T01:47:29.815Z,1008.9
2017-09-28T01:48:31.205Z,1008.9
2017-09-28T01:49:32.599Z,1008.9
2017-09-28T01:50:33.992Z,1008.9
2017-09-28T01:51:35.384Z,1008.9
2017-09-28T01:52:36.768Z,1008.9
2017-09-28T01:53:38.159Z,1008.9
2017-09-28T01:54:39.547Z,1008.9
2017-09-28T01:55:40.935Z,1008.9
2017-09-28T01:56:42.333Z,1009.0
2017-09-28T01:57:43.722Z,1008.9
2017-09-28T01:58:45.116Z,1008.9
2017-09-28T01:59:46.509Z,1009.0
2017-09-28T02:00:47.892Z,1009.0
2017-09-28T02:01:49.281Z,1008.9
2017-09-28T02:02:50.672Z,1008.9
2017-09-28T02:03:52.061Z,1008.9
2017-09-28T02:04:53.455Z,1008.9
2017-09-28T02:05:54.843Z,1008.9
2017-09-28T02:06:56.230Z,1008.9
2017-09-28T02:07:57.621Z,1008.9
2017-09-28T02:08:59.010Z,1008.9
2017-09-28T02:10:00.401Z,1008.9
2017-09-28T02:11:01.791Z,1008.9
2017-09-28T02:12:03.183Z,1008.9
2017-09-28T02:13:04.570Z,1008.8
2017-09-28T02:14:05.962Z,1008.9
2017-09-28T02:15:07.349Z,1008.9
2017-09-28T02:16:08.740Z,1008.9
2017-09-28T02:17:10.134Z,1008.9
2017-09-28T02:18:11.523Z,1008.9
2017-09-28T02:19:12.915Z,1008.9
2017-09-28T02:20:14.311Z,1008.9
2017-09-28T02:21:15.698Z,1008.9
2017-09-28T02:22:17.089Z,1008.9
2017-09-28T02:23:18.477Z,1008.9
2017-09-28T02:24:19.869Z,1008.9
2017-09-28T02:25:21.259Z,1008.9
2017-09-28T02:26:22.650Z,1008.9
2017-09-28T02:27:24.046Z,1008.9
2017-09-28T02:28:25.459Z,1008.9
2017-09-28T02:29:26.822Z,1008.9
2017-09-28T02:30:28.210Z,1009.0
2017-09-28T02:31:29.599Z,1008.9
2017-09-28T02:32:30.996Z,1009.0
2017-09-28T02:33:32.389Z,1009.0
2017-09-28T02:34:33.781Z,1008.9
2017-09-28T02:35:35.209Z,1009.0
2017-09-28T02:36:36.600Z,1008.9
2017-09-28T02:37:37.991Z,1008.9
2017-09-28T02:38:39.386Z,1008.9
2017-09-28T02:39:40.773Z,1008.9
2017-09-28T02:40:42.163Z,1008.8
2017-09-28T02:41:43.555Z,1008.9
2017-09-28T02:42:44.943Z,1008.9
2017-09-28T02:43:46.350Z,1008.8
2017-09-28T02:44:47.743Z,1008.8
2017-09-28T02:45:49.129Z,1008.8
2017-09-28T02:46:50.519Z,1008.7
2017-09-28T02:47:51.911Z,1008.8
2017-09-28T02:48:53.304Z,1008.8
2017-09-28T02:49:54.694Z,1008.8
2017-09-28T02:50:56.082Z,1008.8
2017-09-28T02:51:57.473Z,1008.8
2017-09-28T02:52:58.864Z,1008.8
2017-09-28T02:54:00.255Z,1008.8
2017-09-28T02:55:01.646Z,1008.8
2017-09-28T02:56:03.040Z,1008.8
2017-09-28T02:57:05.616Z,1008.8
2017-09-28T02:58:07.003Z,1008.8
2017-09-28T02:59:08.392Z,1008.8
2017-09-28T03:00:09.780Z,1008.8
2017-09-28T03:01:11.172Z,1008.9
2017-09-28T03:02:12.565Z,1008.8
2017-09-28T03:03:13.955Z,1008.8
2017-09-28T03:04:15.344Z,1008.9
2017-09-28T03:05:16.731Z,1008.9
2017-09-28T03:06:18.120Z,1008.9
2017-09-28T03:07:19.512Z,1008.9
2017-09-28T03:08:20.906Z,1008.9
2017-09-28T03:09:22.294Z,1008.9
2017-09-28T03:10:23.686Z,1008.9
2017-09-28T03:11:25.072Z,1008.9
2017-09-28T03:12:26.463Z,1008.9
2017-09-28T03:13:27.856Z,1008.9
2017-09-28T03:14:29.246Z,1008.9
2017-09-28T03:15:30.634Z,1008.9
2017-09-28T03:16:32.027Z,1008.9
2017-09-28T03:17:33.421Z,1008.9
2017-09-28T03:18:34.810Z,1008.8
2017-09-28T03:19:36.201Z,1008.8
2017-09-28T03:20:37.593Z,1008.8
2017-09-28T03:21:38.995Z,1008.8
2017-09-28T03:22:40.374Z,1008.8
2017-09-28T03:23:41.767Z,1008.8
2017-09-28T03:24:43.157Z,1008.8
2017-09-28T03:25:44.545Z,1008.8
2017-09-28T03:26:45.936Z,1008.8
2017-09-28T03:27:47.328Z,1008.8
2017-09-28T03:28:48.719Z,1008.8
2017-09-28T03:29:50.110Z,1008.8
2017-09-28T03:30:51.502Z,1008.8
2017-09-28T03:31:52.893Z,1008.8
2017-09-28T03:32:54.282Z,1008.8
2017-09-28T03:33:55.673Z,1008.9
2017-09-28T03:34:57.060Z,1008.8
2017-09-28T03:35:58.453Z,1008.8
2017-09-28T03:36:59.845Z,1008.8
2017-09-28T03:38:01.236Z,1008.8
2017-09-28T03:39:02.629Z,1008.8
2017-09-28T03:40:04.016Z,1008.8
2017-09-28T03:41:05.406Z,1008.8
2017-09-28T03:42:06.795Z,1008.8
2017-09-28T03:43:08.204Z,1008.8
2017-09-28T03:44:09.593Z,1008.8
2017-09-28T03:45:10.993Z,1008.8
2017-09-28T03:46:12.379Z,1008.8
2017-09-28T03:47:13.765Z,1008.9
2017-09-28T03:48:15.156Z,1008.8
2017-09-28T03:49:16.556Z,1008.8
2017-09-28T03:50:17.944Z,1008.8
2017-09-28T03:51:19.334Z,1008.8
2017-09-28T03:52:20.726Z,1008.8
2017-09-28T03:53:22.121Z,1008.8
2017-09-28T03:54:23.508Z,1008.8
2017-09-28T03:55:24.898Z,1008.9
2017-09-28T03:56:26.289Z,1008.8
2017-09-28T03:57:27.677Z,1008.8
2017-09-28T03:58:29.069Z,1008.8
2017-09-28T03:59:30.461Z,1008.8
2017-09-28T04:00:31.850Z,1008.8
2017-09-28T04:01:33.246Z,1008.8
2017-09-28T04:02:34.628Z,1008.8
2017-09-28T04:03:36.020Z,1008.8
2017-09-28T04:04:37.410Z,1008.7
2017-09-28T04:05:38.802Z,1008.7
2017-09-28T04:06:40.194Z,1008.7
2017-09-28T04:07:41.588Z,1008.7
2017-09-28T04:08:42.978Z,1008.7
2017-09-28T04:09:44.365Z,1008.8
2017-09-28T04:10:45.759Z,1008.7
2017-09-28T04:11:47.153Z,1008.7
2017-09-28T04:12:48.575Z,1008.8
2017-09-28T04:13:49.968Z,1008.8
2017-09-28T04:14:51.357Z,1008.8
2017-09-28T04:15:52.749Z,1008.8
2017-09-28T04:16:54.136Z,1008.8
2017-09-28T04:17:55.531Z,1008.8
2017-09-28T04:18:56.915Z,1008.8
2017-09-28T04:19:58.306Z,1008.8
2017-09-28T04:20:59.698Z,1008.8
2017-09-28T04:22:01.090Z,1008.8
2017-09-28T04:23:02.478Z,1008.8
2017-09-28T04:24:03.866Z,1008.8
2017-09-28T04:25:05.254Z,1008.8
2017-09-28T04:26:06.648Z,1008.8
2017-09-28T04:27:08.043Z,1008.8
2017-09-28T04:28:09.437Z,1008.9
2017-09-28T04:29:10.828Z,1008.8
2017-09-28T04:30:12.220Z,1008.8
2017-09-28T04:31:13.613Z,1008.8
2017-09-28T04:32:15.007Z,1008.8
2017-09-28T04:33:16.396Z,1008.8
2017-09-28T04:34:17.787Z,1008.8
2017-09-28T04:35:19.182Z,1008.8
2017-09-28T04:36:20.570Z,1008.8
2017-09-28T04:37:21.961Z,1008.8
2017-09-28T04:38:23.352Z,1008.8
2017-09-28T04:39:24.740Z,1008.8
2017-09-28T04:40:26.132Z,1008.7
2017-09-28T04:41:27.521Z,1008.7
2017-09-28T04:42:28.912Z,1008.7
2017-09-28T04:43:30.304Z,1008.7
2017-09-28T04:44:31.698Z,1008.6
2017-09-28T04:45:33.084Z,1008.7
2017-09-28T04:46:34.518Z,1008.7
2017-09-28T04:47:35.910Z,1008.7
2017-09-28T04:48:37.301Z,1008.6
2017-09-28T04:49:38.693Z,1008.6
2017-09-28T04:50:40.086Z,1008.6
2017-09-28T04:51:41.472Z,1008.6
2017-09-28T04:52:42.863Z,1008.6
2017-09-28T04:53:44.255Z,1008.6
2017-09-28T04:54:45.657Z,1008.6
2017-09-28T04:55:47.051Z,1008.6
2017-09-28T04:56:48.446Z,1008.6
2017-09-28T04:57:49.838Z,1008.6
2017-09-28T04:58:51.231Z,1008.7
2017-09-28T04:59:52.618Z,1008.7
2017-09-28T05:00:54.010Z,1008.7
2017-09-28T05:01:55.401Z,1008.7
2017-09-28T05:02:56.790Z,1008.7
2017-09-28T05:03:58.183Z,1008.7
2017-09-28T05:04:59.577Z,1008.7
2017-09-28T05:06:00.969Z,1008.7
2017-09-28T05:07:02.397Z,1008.7
2017-09-28T05:08:03.785Z,1008.7
2017-09-28T05:09:05.177Z,1008.7
2017-09-28T05:10:06.571Z,1008.7
2017-09-28T05:11:08.248Z,1008.6
2017-09-28T05:12:09.630Z,1008.7
2017-09-28T05:13:11.018Z,1008.7
2017-09-28T05:14:12.409Z,1008.7
2017-09-28T05:15:13.804Z,1008.7
2017-09-28T05:16:15.192Z,1008.7
2017-09-28T05:17:16.601Z,1008.7
2017-09-28T05:18:18.792Z,1008.7
2017-09-28T05:19:20.187Z,1008.8
2017-09-28T05:20:21.577Z,1008.7
2017-09-28T05:21:22.968Z,1008.7
2017-09-28T05:22:24.360Z,1008.7
2017-09-28T05:23:25.753Z,1008.8
2017-09-28T05:24:27.142Z,1008.8
2017-09-28T05:25:28.536Z,1008.7
2017-09-28T05:26:29.932Z,1008.7
2017-09-28T05:27:31.406Z,1008.7
2017-09-28T05:28:33.001Z,1008.7
2017-09-28T05:29:34.453Z,1008.7
2017-09-28T05:30:35.846Z,1008.7
2017-09-28T05:31:37.235Z,1008.7
2017-09-28T05:32:38.630Z,1008.8
2017-09-28T05:33:40.023Z,1008.8
2017-09-28T05:34:43.557Z,1008.8
2017-09-28T05:35:44.948Z,1008.8
2017-09-28T05:36:46.359Z,1008.8
2017-09-28T05:37:47.747Z,1008.8
2017-09-28T05:38:49.141Z,1008.8
2017-09-28T05:39:50.534Z,1008.8
2017-09-28T05:40:51.927Z,1008.8
2017-09-28T05:41:53.316Z,1008.8
2017-09-28T05:42:54.707Z,1008.8
2017-09-28T05:43:56.063Z,1008.9
2017-09-28T05:44:57.461Z,1008.8
2017-09-28T05:45:58.888Z,1008.8
2017-09-28T05:47:00.280Z,1008.8
2017-09-28T05:48:01.675Z,1008.8
2017-09-28T05:49:03.064Z,1008.8
2017-09-28T05:50:04.458Z,1008.8
2017-09-28T05:51:05.855Z,1008.8
2017-09-28T05:52:07.250Z,1008.9
2017-09-28T05:53:08.644Z,1008.9
2017-09-28T05:54:10.050Z,1008.8
2017-09-28T05:55:11.447Z,1008.9
2017-09-28T05:56:12.839Z,1008.9
2017-09-28T05:57:14.231Z,1008.9
2017-09-28T05:58:15.624Z,1008.9
2017-09-28T05:59:17.017Z,1008.9
2017-09-28T06:00:18.410Z,1008.9
2017-09-28T06:01:19.803Z,1008.9
2017-09-28T06:02:21.203Z,1009.0
2017-09-28T06:03:22.595Z,1008.9
2017-09-28T06:04:23.984Z,1009.0
2017-09-28T06:05:25.376Z,1009.0
2017-09-28T06:06:26.772Z,1009.0
2017-09-28T06:07:28.164Z,1009.0
2017-09-28T06:08:29.560Z,1009.0
2017-09-28T06:09:30.953Z,1009.1
2017-09-28T06:10:32.341Z,1009.1
2017-09-28T06:11:33.733Z,1009.1
2017-09-28T06:12:35.125Z,1009.1
2017-09-28T06:13:36.518Z,1009.2
2017-09-28T06:14:37.911Z,1009.2
2017-09-28T06:15:39.302Z,1009.2
2017-09-28T06:16:40.696Z,1009.2
2017-09-28T06:17:42.086Z,1009.2
2017-09-28T06:18:43.478Z,1009.2
2017-09-28T06:19:44.872Z,1009.1
2017-09-28T06:20:46.265Z,1009.1
2017-09-28T06:21:47.659Z,1009.1
2017-09-28T06:22:49.058Z,1009.2
2017-09-28T06:23:50.477Z,1009.1
2017-09-28T06:24:51.875Z,1009.1
2017-09-28T06:25:53.267Z,1009.1
2017-09-28T06:26:54.657Z,1009.0
2017-09-28T06:27:56.050Z,1009.0
2017-09-28T06:28:57.447Z,1009.0
2017-09-28T06:29:58.845Z,1009.0
2017-09-28T06:31:00.249Z,1009.0
2017-09-28T06:32:01.634Z,1009.0
2017-09-28T06:33:03.027Z,1009.0
2017-09-28T06:34:04.422Z,1008.9
2017-09-28T06:35:05.818Z,1008.9
2017-09-28T06:36:07.210Z,1008.9
2017-09-28T06:37:08.606Z,1009.0
2017-09-28T06:38:09.999Z,1008.9
2017-09-28T06:39:11.390Z,1009.0
2017-09-28T06:40:12.812Z,1009.0
2017-09-28T06:41:14.177Z,1009.0
2017-09-28T06:42:15.570Z,1009.1
2017-09-28T06:43:16.979Z,1009.1
2017-09-28T06:44:18.361Z,1009.2
2017-09-28T06:45:19.758Z,1009.1
2017-09-28T06:46:21.148Z,1009.2
2017-09-28T06:47:22.540Z,1009.2
2017-09-28T06:48:23.932Z,1009.2
2017-09-28T06:49:25.326Z,1009.3
2017-09-28T06:50:26.721Z,1009.3
2017-09-28T06:51:28.117Z,1009.3
2017-09-28T06:52:29.537Z,1009.3
2017-09-28T06:53:30.910Z,1009.3
2017-09-28T06:54:32.301Z,1009.3
2017-09-28T06:55:33.695Z,1009.3
2017-09-28T06:56:35.090Z,1009.3
2017-09-28T06:57:36.488Z,1009.3
2017-09-28T06:58:37.879Z,1009.3
2017-09-28T06:59:39.279Z,1009.2
2017-09-28T07:00:40.684Z,1009.3
2017-09-28T07:01:42.071Z,1009.3
2017-09-28T07:02:43.464Z,1009.2
2017-09-28T07:03:44.860Z,1009.2
2017-09-28T07:04:46.260Z,1009.2
2017-09-28T07:05:47.651Z,1009.2
2017-09-28T07:06:49.048Z,1009.2
2017-09-28T07:07:50.454Z,1009.2
2017-09-28T07:08:51.851Z,1009.2
2017-09-28T07:09:53.246Z,1009.2
2017-09-28T07:10:54.638Z,1009.2
2017-09-28T07:11:56.034Z,1009.2
2017-09-28T07:12:57.430Z,1009.3
2017-09-28T07:13:58.825Z,1009.2
2017-09-28T07:15:00.217Z,1009.2
2017-09-28T07:16:01.615Z,1009.2
2017-09-28T07:17:03.008Z,1009.2
2017-09-28T07:18:04.405Z,1009.2
2017-09-28T07:19:05.801Z,1009.2
2017-09-28T07:20:07.201Z,1009.2
2017-09-28T07:21:08.596Z,1009.2
2017-09-28T07:22:10.000Z,1009.3
2017-09-28T07:23:11.391Z,1009.3
2017-09-28T07:24:12.789Z,1009.3
2017-09-28T07:25:14.219Z,1009.3
2017-09-28T07:26:15.613Z,1009.3
2017-09-28T07:27:17.008Z,1009.3
2017-09-28T07:28:18.408Z,1009.3
2017-09-28T07:29:19.801Z,1009.3
2017-09-28T07:30:21.205Z,1009.4
2017-09-28T07:31:22.599Z,1009.4
2017-09-28T07:32:23.997Z,1009.4
2017-09-28T07:33:25.396Z,1009.4
2017-09-28T07:34:26.792Z,1009.4
2017-09-28T07:35:28.189Z,1009.4
2017-09-28T07:36:29.582Z,1009.4
2017-09-28T07:37:30.981Z,1009.4
2017-09-28T07:38:32.374Z,1009.4
2017-09-28T07:39:33.773Z,1009.4
2017-09-28T07:40:35.168Z,1009.4
2017-09-28T07:41:36.565Z,1009.4
2017-09-28T07:42:37.962Z,1009.3
2017-09-28T07:43:39.354Z,1009.3
2017-09-28T07:44:40.745Z,1009.3
2017-09-28T07:45:42.138Z,1009.3
2017-09-28T07:46:43.536Z,1009.3
2017-09-28T07:47:44.927Z,1009.3
2017-09-28T07:48:46.329Z,1009.3
2017-09-28T07:49:47.724Z,1009.3
2017-09-28T07:50:49.113Z,1009.3
2017-09-28T07:51:50.508Z,1009.3
2017-09-28T07:52:51.901Z,1009.3
2017-09-28T07:53:53.300Z,1009.3
2017-09-28T07:54:54.693Z,1009.3
2017-09-28T07:55:56.097Z,1009.3
2017-09-28T07:56:57.486Z,1009.3
2017-09-28T07:57:58.880Z,1009.3
2017-09-28T07:59:00.274Z,1009.3
2017-09-28T08:00:01.670Z,1009.3
2017-09-28T08:01:03.068Z,1009.3
2017-09-28T08:02:04.468Z,1009.4
2017-09-28T08:03:05.865Z,1009.4
2017-09-28T08:04:07.264Z,1009.4
2017-09-28T08:05:08.659Z,1009.4
2017-09-28T08:06:10.055Z,1009.4
2017-09-28T08:07:11.451Z,1009.5
2017-09-28T08:08:12.845Z,1009.5
2017-09-28T08:09:14.247Z,1009.5
2017-09-28T08:10:15.646Z,1009.5
2017-09-28T08:11:17.043Z,1009.5
2017-09-28T08:12:18.436Z,1009.5
2017-09-28T08:13:19.832Z,1009.5
2017-09-28T08:14:21.229Z,1009.5
2017-09-28T08:15:22.624Z,1009.5
2017-09-28T08:16:24.022Z,1009.5
2017-09-28T08:17:25.421Z,1009.5
2017-09-28T08:18:26.818Z,1009.5
2017-09-28T08:19:28.217Z,1009.4
2017-09-28T08:20:29.610Z,1009.5
2017-09-28T08:21:31.006Z,1009.5
2017-09-28T08:22:32.406Z,1009.5
2017-09-28T08:23:33.806Z,1009.5
2017-09-28T08:24:35.200Z,1009.5
2017-09-28T08:25:36.598Z,1009.5
2017-09-28T08:26:37.996Z,1009.4
2017-09-28T08:27:39.391Z,1009.5
2017-09-28T08:28:40.785Z,1009.4
2017-09-28T08:29:42.185Z,1009.4
2017-09-28T08:30:43.584Z,1009.4
2017-09-28T08:31:44.982Z,1009.4
2017-09-28T08:32:46.381Z,1009.5
2017-09-28T08:33:47.776Z,1009.4
2017-09-28T08:34:49.176Z,1009.4
2017-09-28T08:35:50.569Z,1009.5
2017-09-28T08:36:51.968Z,1009.4
2017-09-28T08:37:53.368Z,1009.4
2017-09-28T08:38:54.763Z,1009.4
2017-09-28T08:39:56.163Z,1009.4
2017-09-28T08:40:57.556Z,1009.4
2017-09-28T08:41:58.953Z,1009.4
2017-09-28T08:43:00.350Z,1009.4
2017-09-28T08:44:01.750Z,1009.4
2017-09-28T08:45:03.149Z,1009.4
2017-09-28T08:46:04.549Z,1009.4
2017-09-28T08:47:05.948Z,1009.4
2017-09-28T08:48:07.343Z,1009.4
2017-09-28T08:49:08.747Z,1009.5
2017-09-28T08:50:10.140Z,1009.4
2017-09-28T08:51:11.535Z,1009.4
2017-09-28T08:52:12.936Z,1009.4
2017-09-28T08:53:14.348Z,1009.4
2017-09-28T08:54:15.735Z,1009.4
2017-09-28T08:55:17.134Z,1009.4
2017-09-28T08:56:18.528Z,1009.4
2017-09-28T08:57:19.929Z,1009.4
2017-09-28T08:58:21.354Z,1009.4
2017-09-28T08:59:22.722Z,1009.4
2017-09-28T09:00:24.121Z,1009.5
2017-09-28T09:01:25.521Z,1009.5
2017-09-28T09:02:26.959Z,1009.5
2017-09-28T09:03:28.349Z,1009.5
2017-09-28T09:04:29.746Z,1009.5
2017-09-28T09:05:31.144Z,1009.5
2017-09-28T09:06:32.542Z,1009.5
2017-09-28T09:07:33.941Z,1009.5
2017-09-28T09:08:35.340Z,1009.5
2017-09-28T09:09:36.737Z,1009.5
2017-09-28T09:10:38.135Z,1009.5
2017-09-28T09:11:39.531Z,1009.5
2017-09-28T09:12:40.929Z,1009.5
2017-09-28T09:13:42.327Z,1009.5
2017-09-28T09:14:43.726Z,1009.5
2017-09-28T09:15:45.129Z,1009.4
2017-09-28T09:16:46.524Z,1009.5
2017-09-28T09:17:47.920Z,1009.5
2017-09-28T09:18:49.319Z,1009.5
2017-09-28T09:19:50.716Z,1009.4
2017-09-28T09:20:52.114Z,1009.5
2017-09-28T09:21:53.513Z,1009.5
2017-09-28T09:22:54.913Z,1009.5
2017-09-28T09:23:56.311Z,1009.5
2017-09-28T09:24:57.707Z,1009.5
2017-09-28T09:25:59.102Z,1009.5
2017-09-28T09:27:00.503Z,1009.4
2017-09-28T09:28:01.901Z,1009.5
2017-09-28T09:29:03.303Z,1009.4
2017-09-28T09:30:04.704Z,1009.5
2017-09-28T09:31:06.101Z,1009.5
2017-09-28T09:32:07.503Z,1009.5
2017-09-28T09:33:08.895Z,1009.5
2017-09-28T09:34:10.293Z,1009.5
2017-09-28T09:35:11.694Z,1009.5
2017-09-28T09:36:13.092Z,1009.5
2017-09-28T09:37:14.492Z,1009.5
2017-09-28T09:38:15.890Z,1009.5
2017-09-28T09:39:17.288Z,1009.5
2017-09-28T09:40:18.683Z,1009.5
2017-09-28T09:41:20.080Z,1009.5
2017-09-28T09:42:21.478Z,1009.5
2017-09-28T09:43:22.878Z,1009.5
2017-09-28T09:44:24.276Z,1009.5
2017-09-28T09:45:25.675Z,1009.4
2017-09-28T09:46:27.073Z,1009.5
2017-09-28T09:47:28.471Z,1009.4
2017-09-28T09:48:29.864Z,1009.4
2017-09-28T09:49:31.271Z,1009.4
2017-09-28T09:50:32.663Z,1009.4
2017-09-28T09:51:34.059Z,1009.4
2017-09-28T09:52:35.458Z,1009.5
2017-09-28T09:53:36.866Z,1009.5
2017-09-28T09:54:38.249Z,1009.4
2017-09-28T09:55:39.648Z,1009.4
2017-09-28T09:56:41.048Z,1009.4
2017-09-28T09:57:42.444Z,1009.5
2017-09-28T09:58:43.843Z,1009.5
2017-09-28T09:59:45.241Z,1009.5
2017-09-28T10:00:46.638Z,1009.5
2017-09-28T10:01:48.040Z,1009.5
2017-09-28T10:02:49.433Z,1009.5
2017-09-28T10:03:50.837Z,1009.5
2017-09-28T10:04:52.234Z,1009.5
2017-09-28T10:05:53.632Z,1009.4
2017-09-28T10:06:55.029Z,1009.5
2017-09-28T10:07:56.426Z,1009.4
2017-09-28T10:08:57.824Z,1009.5
2017-09-28T10:09:59.220Z,1009.5
2017-09-28T10:11:00.620Z,1009.6
2017-09-28T10:12:02.031Z,1009.5
2017-09-28T10:13:03.426Z,1009.5
2017-09-28T10:14:04.820Z,1009.5
2017-09-28T10:15:06.220Z,1009.5
2017-09-28T10:16:07.619Z,1009.5
2017-09-28T10:17:09.013Z,1009.5
2017-09-28T10:18:10.412Z,1009.5
2017-09-28T10:19:11.808Z,1009.5
2017-09-28T10:20:13.208Z,1009.5
2017-09-28T10:21:14.601Z,1009.5
2017-09-28T10:22:15.996Z,1009.5
2017-09-28T10:23:17.397Z,1009.5
2017-09-28T10:24:18.787Z,1009.5
2017-09-28T10:25:20.187Z,1009.5
2017-09-28T10:26:21.584Z,1009.5
2017-09-28T10:27:22.983Z,1009.5
2017-09-28T10:28:24.380Z,1009.5
2017-09-28T10:29:25.775Z,1009.5
2017-09-28T10:30:27.174Z,1009.6
2017-09-28T10:31:28.571Z,1009.6
2017-09-28T10:32:29.975Z,1009.6
2017-09-28T10:33:31.368Z,1009.6
2017-09-28T10:34:32.767Z,1009.7
2017-09-28T10:35:34.163Z,1009.6
2017-09-28T10:36:35.558Z,1009.6
2017-09-28T10:37:36.956Z,1009.7
2017-09-28T10:38:38.352Z,1009.7
2017-09-28T10:39:39.749Z,1009.7
2017-09-28T10:40:41.146Z,1009.7
2017-09-28T10:41:42.584Z,1009.7
2017-09-28T10:42:43.981Z,1009.7
2017-09-28T10:43:45.378Z,1009.7
2017-09-28T10:44:46.773Z,1009.7
2017-09-28T10:45:48.172Z,1009.8
2017-09-28T10:46:49.572Z,1009.8
2017-09-28T10:47:50.965Z,1009.8
2017-09-28T10:48:52.363Z,1009.8
2017-09-28T10:49:53.756Z,1009.8
2017-09-28T10:50:55.154Z,1009.8
2017-09-28T10:51:56.551Z,1009.8
2017-09-28T10:52:57.945Z,1009.8
2017-09-28T10:53:59.341Z,1009.8
2017-09-28T10:55:00.740Z,1009.8
2017-09-28T10:56:02.137Z,1009.8
2017-09-28T10:57:03.533Z,1009.7
2017-09-28T10:58:04.928Z,1009.8
2017-09-28T10:59:06.351Z,1009.8
2017-09-28T11:00:07.753Z,1009.8
2017-09-28T11:01:09.150Z,1009.7
2017-09-28T11:02:10.544Z,1009.8
2017-09-28T11:03:11.946Z,1009.8
2017-09-28T11:04:13.345Z,1009.8
2017-09-28T11:05:14.747Z,1009.7
2017-09-28T11:06:16.143Z,1009.8
2017-09-28T11:07:17.547Z,1009.7
2017-09-28T11:08:18.945Z,1009.8
2017-09-28T11:09:20.344Z,1009.7
2017-09-28T11:10:21.745Z,1009.7
2017-09-28T11:11:23.142Z,1009.7
2017-09-28T11:12:24.535Z,1009.7
2017-09-28T11:13:25.933Z,1009.7
2017-09-28T11:14:27.329Z,1009.7
2017-09-28T11:15:28.729Z,1009.7
2017-09-28T11:16:30.128Z,1009.7
2017-09-28T11:17:31.529Z,1009.7
2017-09-28T11:18:32.924Z,1009.7
2017-09-28T11:19:34.317Z,1009.7
2017-09-28T11:20:35.716Z,1009.7
2017-09-28T11:21:37.117Z,1009.7
2017-09-28T11:22:38.513Z,1009.7
2017-09-28T11:23:39.914Z,1009.7
2017-09-28T11:24:41.317Z,1009.7
2017-09-28T11:25:42.712Z,1009.6
2017-09-28T11:26:44.108Z,1009.6
2017-09-28T11:27:45.506Z,1009.6
2017-09-28T11:28:46.903Z,1009.6
2017-09-28T11:29:48.301Z,1009.6
2017-09-28T11:30:49.700Z,1009.5
2017-09-28T11:31:51.098Z,1009.6
2017-09-28T11:32:52.496Z,1009.5
2017-09-28T11:33:53.892Z,1009.5
2017-09-28T11:34:55.287Z,1009.5
2017-09-28T11:35:56.685Z,1009.5
2017-09-28T11:36:58.081Z,1009.5
2017-09-28T11:37:59.482Z,1009.4
2017-09-28T11:39:00.882Z,1009.4
2017-09-28T11:40:02.278Z,1009.5
2017-09-28T11:41:03.677Z,1009.4
2017-09-28T11:42:05.076Z,1009.4
2017-09-28T11:43:06.478Z,1009.4
2017-09-28T11:44:07.879Z,1009.4
2017-09-28T11:45:09.275Z,1009.3
2017-09-28T11:46:10.674Z,1009.3
2017-09-28T11:47:12.071Z,1009.3
2017-09-28T11:48:13.467Z,1009.3
2017-09-28T11:49:14.865Z,1009.4
2017-09-28T11:50:16.265Z,1009.3
2017-09-28T11:51:17.662Z,1009.4
2017-09-28T11:52:19.064Z,1009.3
2017-09-28T11:53:20.463Z,1009.3
2017-09-28T11:54:21.859Z,1009.3
2017-09-28T11:55:23.259Z,1009.3
2017-09-28T11:56:24.657Z,1009.3
2017-09-28T11:57:26.055Z,1009.3
2017-09-28T11:58:27.454Z,1009.3
2017-09-28T11:59:28.853Z,1009.3
2017-09-28T12:00:30.252Z,1009.3
2017-09-28T12:01:31.649Z,1009.3
2017-09-28T12:02:33.047Z,1009.3
2017-09-28T12:03:34.442Z,1009.3
2017-09-28T12:04:35.841Z,1009.3
2017-09-28T12:05:37.276Z,1009.3
2017-09-28T12:06:38.638Z,1009.3
2017-09-28T12:07:40.039Z,1009.3
2017-09-28T12:08:41.435Z,1009.3
2017-09-28T12:09:42.835Z,1009.3
2017-09-28T12:10:44.229Z,1009.3
2017-09-28T12:11:45.631Z,1009.3
2017-09-28T12:12:47.030Z,1009.3
2017-09-28T12:13:48.432Z,1009.3
2017-09-28T12:14:49.836Z,1009.3
2017-09-28T12:15:51.237Z,1009.2
2017-09-28T12:16:52.636Z,1009.3
2017-09-28T12:17:54.032Z,1009.3
2017-09-28T12:18:55.452Z,1009.3
2017-09-28T12:19:56.850Z,1009.2
2017-09-28T12:20:58.250Z,1009.3
2017-09-28T12:21:59.652Z,1009.3
2017-09-28T12:23:01.048Z,1009.3
2017-09-28T12:24:02.451Z,1009.3
2017-09-28T12:25:03.851Z,1009.3
2017-09-28T12:26:05.248Z,1009.3
2017-09-28T12:27:06.649Z,1009.3
2017-09-28T12:28:08.048Z,1009.3
2017-09-28T12:29:09.451Z,1009.3
2017-09-28T12:30:10.849Z,1009.3
2017-09-28T12:31:12.249Z,1009.3
2017-09-28T12:32:13.650Z,1009.3
2017-09-28T12:33:15.051Z,1009.2
2017-09-28T12:34:16.483Z,1009.2
2017-09-28T12:35:17.851Z,1009.2
2017-09-28T12:36:19.250Z,1009.2
2017-09-28T12:37:20.649Z,1009.2
2017-09-28T12:38:22.046Z,1009.2
2017-09-28T12:39:23.445Z,1009.2
2017-09-28T12:40:24.847Z,1009.2
2017-09-28T12:41:26.254Z,1009.3
2017-09-28T12:42:27.649Z,1009.3
2017-09-28T12:43:29.051Z,1009.3
2017-09-28T12:44:30.448Z,1009.3
2017-09-28T12:45:31.845Z,1009.2